Weather History for Wildwood, NJ

Change the Weather History Date:

Tuesday, January 7, 2014

  Actual Average Record
Temperature  
Mean Temperature 12 °F -  
Max Temperature 17 °F 42 °F 66 °F (2008)
Min Temperature 8 °F 29 °F 8 °F (2014)
Degree Days  
Heating Degree Days 52    
Moisture  
Dew Point -5 °F    
Average Humidity 46    
Maximum Humidity 53    
Minimum Humidity 41    
Precipitation  
Precipitation 0.00 in - - ()
Sea Level Pressure  
Sea Level Pressure 30.27 in    
Wind  
Wind Speed 19 mph (WNW)    
Max Wind Speed 24 mph    
Max Gust Speed 38 mph    
Visibility 10 miles    
Events      
Averages and records for this station are not official NWS values.
T = Trace of Precipitation, MM = Missing Value Source: NWS Daily Summary

Daily Weather History Graph

Daily Weather History Graph

Search for Another Location

Airport:

Trip Planner

Search our weather history database for the weather conditions in past years. The results will help you decide how hot, cold, wet, or windy it might be!

Date:

Astronomy

Jan. 07, 2014 Rise Set
Actual Time 7:18 AM EST 4:53 PM EST
Civil Twilight 6:49 AM EST 5:23 PM EST
Nautical Twilight 6:15 AM EST 5:56 PM EST
Astronomical Twilight 5:43 AM EST 6:28 PM EST
Moon 11:09 AM EST (1/7) No Moon Set
Length of Visible Light 10h 33m
Length of Day
9h 34m
Waxing Crescent, 45% of the Moon is Illuminated
Jan 7
Waxing Crescent
Jan 7
First Quarter
Jan 15
Full
Jan 24
Last Quarter
Jan 30
New

Hourly Weather History & Observations

Time (EST) Temp. Windchill Dew Point Humidity Pressure Visibility Wind Dir Wind Speed Gust Speed Precip Events Conditions
12:15 AM 15.8 °F -0.2 °F -2.2 °F 45% 29.96 in 10.0 mi WNW 17.3 mph 28.8 mph N/A   Scattered Clouds
12:35 AM 15.8 °F -1.5 °F -2.2 °F 45% 29.97 in 10.0 mi WNW 20.7 mph 29.9 mph N/A   Scattered Clouds
12:55 AM 15.8 °F -2.3 °F -2.2 °F 45% 29.97 in 10.0 mi WNW 23.0 mph 35.7 mph N/A   Mostly Cloudy
1:15 AM 14.0 °F -3.4 °F -4.0 °F 45% 29.99 in 10.0 mi WNW 19.6 mph 31.1 mph N/A   Partly Cloudy
1:35 AM 12.2 °F -7.1 °F -5.8 °F 45% 30.01 in 10.0 mi WNW 23.0 mph 34.5 mph N/A   Partly Cloudy
1:55 AM 12.2 °F -5.8 °F -5.8 °F 45% 30.03 in 10.0 mi WNW 19.6 mph 36.8 mph N/A   Partly Cloudy
2:15 AM 12.2 °F -5.3 °F -7.6 °F 41% 30.05 in 10.0 mi WNW 18.4 mph 35.7 mph N/A   Clear
2:35 AM 12.2 °F -5.8 °F -7.6 °F 41% 30.05 in 10.0 mi WNW 19.6 mph 32.2 mph N/A   Partly Cloudy
2:55 AM 12.2 °F -6.3 °F -5.8 °F 45% 30.06 in 10.0 mi WNW 20.7 mph 29.9 mph N/A   Scattered Clouds
3:15 AM 10.4 °F -9.5 °F -5.8 °F 48% 30.07 in 10.0 mi WNW 23.0 mph 31.1 mph N/A   Mostly Cloudy
3:35 AM 10.4 °F -8.6 °F -7.6 °F 44% 30.08 in 10.0 mi WNW 20.7 mph 31.1 mph N/A   Scattered Clouds
3:55 AM 10.4 °F -9.5 °F -7.6 °F 44% 30.09 in 10.0 mi WNW 23.0 mph 33.4 mph N/A   Partly Cloudy
4:15 AM 10.4 °F -9.1 °F -9.4 °F 41% 30.11 in 10.0 mi WNW 21.9 mph 38.0 mph N/A   Clear
4:35 AM 10.4 °F -9.1 °F -7.6 °F 44% 30.12 in 10.0 mi WNW 21.9 mph 35.7 mph N/A   Scattered Clouds
4:55 AM 10.4 °F -9.5 °F -7.6 °F 44% 30.13 in 10.0 mi WNW 23.0 mph 31.1 mph N/A   Mostly Cloudy
5:15 AM 10.4 °F -9.1 °F -7.6 °F 44% 30.16 in 10.0 mi West 21.9 mph 31.1 mph N/A   Mostly Cloudy
5:35 AM 8.6 °F -10.0 °F -7.6 °F 48% 30.17 in 10.0 mi WNW 18.4 mph 28.8 mph N/A   Mostly Cloudy
5:55 AM 8.6 °F -11.0 °F -7.6 °F 48% 30.19 in 10.0 mi West 20.7 mph 29.9 mph N/A   Mostly Cloudy
6:15 AM 8.6 °F -10.5 °F -7.6 °F 48% 30.20 in 10.0 mi WNW 19.6 mph 34.5 mph N/A   Mostly Cloudy
6:35 AM 8.6 °F -11.9 °F -9.4 °F 44% 30.22 in 10.0 mi West 23.0 mph 32.2 mph N/A   Scattered Clouds
6:55 AM 8.6 °F -12.3 °F -7.6 °F 48% 30.22 in 10.0 mi West 24.2 mph 29.9 mph N/A   Scattered Clouds
7:15 AM 8.6 °F -11.0 °F -7.6 °F 48% 30.24 in 10.0 mi West 20.7 mph 31.1 mph N/A   Scattered Clouds
7:35 AM 8.6 °F -8.9 °F -7.6 °F 48% 30.24 in 10.0 mi West 16.1 mph 28.8 mph N/A   Scattered Clouds
7:55 AM 8.6 °F -12.3 °F -7.6 °F 48% 30.26 in 10.0 mi WNW 24.2 mph 32.2 mph N/A   Mostly Cloudy
8:15 AM 8.6 °F -8.9 °F -7.6 °F 48% 30.27 in 10.0 mi WNW 16.1 mph 32.2 mph N/A   Mostly Cloudy
8:35 AM 8.6 °F -11.0 °F -7.6 °F 48% 30.28 in 10.0 mi West 20.7 mph 31.1 mph N/A   Mostly Cloudy
8:55 AM 8.6 °F -11.4 °F -7.6 °F 48% 30.30 in 10.0 mi WNW 21.9 mph 33.4 mph N/A   Mostly Cloudy
9:15 AM 8.6 °F -11.4 °F -7.6 °F 48% 30.32 in 10.0 mi West 21.9 mph 33.4 mph N/A   Mostly Cloudy
9:35 AM 8.6 °F -11.4 °F -7.6 °F 48% 30.33 in 10.0 mi WNW 21.9 mph 29.9 mph N/A   Mostly Cloudy
9:55 AM 8.6 °F -10.0 °F -7.6 °F 48% 30.34 in 10.0 mi WNW 18.4 mph 28.8 mph N/A   Mostly Cloudy
10:15 AM 10.4 °F -8.2 °F -9.4 °F 41% 30.34 in 10.0 mi West 19.6 mph 31.1 mph N/A   Mostly Cloudy
10:35 AM 10.4 °F -6.0 °F -7.6 °F 44% 30.33 in 10.0 mi WNW 15.0 mph 29.9 mph N/A   Mostly Cloudy
10:55 AM 10.4 °F -6.6 °F -7.6 °F 44% 30.33 in 10.0 mi West 16.1 mph 28.8 mph N/A   Mostly Cloudy
11:15 AM 10.4 °F -7.2 °F -7.6 °F 44% 30.32 in 10.0 mi WNW 17.3 mph 26.5 mph N/A   Overcast
11:35 AM 10.4 °F -7.7 °F -7.6 °F 44% 30.32 in 10.0 mi WNW 18.4 mph 28.8 mph N/A   Overcast
11:55 AM 10.4 °F -7.7 °F -5.8 °F 48% 30.32 in 10.0 mi West 18.4 mph 26.5 mph N/A   Overcast
12:15 PM 12.2 °F -4.3 °F -7.6 °F 41% 30.31 in 10.0 mi WNW 16.1 mph 31.1 mph N/A   Mostly Cloudy
12:35 PM 10.4 °F -8.6 °F -7.6 °F 44% 30.30 in 10.0 mi West 20.7 mph 27.6 mph N/A   Mostly Cloudy
12:55 PM 12.2 °F -4.8 °F -4.0 °F 48% 30.31 in 10.0 mi West 17.3 mph 27.6 mph N/A   Mostly Cloudy
1:15 PM 10.4 °F -6.6 °F -5.8 °F 48% 30.31 in 10.0 mi West 16.1 mph 24.2 mph N/A   Mostly Cloudy
1:35 PM 12.2 °F -4.8 °F -5.8 °F 45% 30.30 in 10.0 mi West 17.3 mph 26.5 mph N/A   Mostly Cloudy
1:55 PM 12.2 °F -6.3 °F -4.0 °F 48% 30.30 in 10.0 mi West 20.7 mph 31.1 mph N/A   Mostly Cloudy
2:15 PM 14.0 °F -3.9 °F -2.2 °F 49% 30.31 in 10.0 mi West 20.7 mph 27.6 mph N/A   Partly Cloudy
2:35 PM 14.0 °F -2.0 °F -4.0 °F 45% 30.30 in 10.0 mi WNW 16.1 mph 24.2 mph N/A   Partly Cloudy
2:55 PM 14.0 °F -2.5 °F -4.0 °F 45% 30.30 in 10.0 mi WNW 17.3 mph 27.6 mph N/A   Partly Cloudy
3:15 PM 14.0 °F -3.4 °F -2.2 °F 49% 30.32 in 10.0 mi West 19.6 mph 23.0 mph N/A   Partly Cloudy
3:35 PM 15.8 °F 0.3 °F -2.2 °F 45% 30.32 in 10.0 mi West 16.1 mph 23.0 mph N/A   Partly Cloudy
3:55 PM 15.8 °F -0.2 °F -2.2 °F 45% 30.31 in 10.0 mi West 17.3 mph 25.3 mph N/A   Clear
4:15 PM 15.8 °F 2.1 °F -4.0 °F 41% 30.31 in 10.0 mi West 12.7 mph 23.0 mph N/A   Clear
4:35 PM 14.0 °F -1.4 °F -4.0 °F 45% 30.29 in 10.0 mi WNW 15.0 mph 24.2 mph N/A   Clear
4:55 PM 14.0 °F -2.0 °F -4.0 °F 45% 30.31 in 10.0 mi West 16.1 mph 23.0 mph N/A   Clear
5:15 PM 14.0 °F -0.8 °F -4.0 °F 45% 30.34 in 10.0 mi West 13.8 mph 25.3 mph N/A   Clear
5:35 PM 14.0 °F -2.0 °F -4.0 °F 45% 30.34 in 10.0 mi WNW 16.1 mph 26.5 mph N/A   Clear
5:55 PM 14.0 °F -1.4 °F -2.2 °F 49% 30.36 in 10.0 mi West 15.0 mph 20.7 mph N/A   Clear
6:15 PM 14.0 °F -0.2 °F -2.2 °F 49% 30.36 in 10.0 mi West 12.7 mph 17.3 mph N/A   Clear
6:35 PM 15.8 °F 0.3 °F -2.2 °F 45% 30.37 in 10.0 mi West 16.1 mph 21.9 mph N/A   Clear
6:55 PM 15.8 °F 2.1 °F -2.2 °F 45% 30.39 in 10.0 mi WNW 12.7 mph 21.9 mph N/A   Clear
7:15 PM 15.8 °F 0.9 °F -2.2 °F 45% 30.40 in 10.0 mi West 15.0 mph 19.6 mph N/A   Clear
7:35 PM 15.8 °F 1.4 °F -2.2 °F 45% 30.41 in 10.0 mi West 13.8 mph 19.6 mph N/A   Clear
7:55 PM 15.8 °F 0.3 °F -4.0 °F 41% 30.41 in 10.0 mi WNW 16.1 mph 23.0 mph N/A   Clear
8:15 PM 15.8 °F 2.7 °F -2.2 °F 45% 30.42 in 10.0 mi West 11.5 mph 19.6 mph N/A   Clear
8:35 PM 15.8 °F -0.2 °F -2.2 °F 45% 30.43 in 10.0 mi West 17.3 mph 23.0 mph N/A   Clear
8:55 PM 15.8 °F 4.2 °F -0.4 °F 49% 30.44 in 10.0 mi West 9.2 mph 19.6 mph N/A   Clear
9:15 PM 15.8 °F 2.1 °F -0.4 °F 49% 30.44 in 10.0 mi West 12.7 mph 16.1 mph N/A   Clear
9:35 PM 15.8 °F 2.7 °F -0.4 °F 49% 30.44 in 10.0 mi West 11.5 mph 18.4 mph N/A   Clear
9:55 PM 15.8 °F 5.1 °F -0.4 °F 49% 30.45 in 10.0 mi West 8.1 mph - N/A   Clear
10:15 PM 15.8 °F 2.1 °F -0.4 °F 49% 30.44 in 10.0 mi West 12.7 mph - N/A   Clear
10:35 PM 15.8 °F 3.4 °F -0.4 °F 49% 30.45 in 10.0 mi West 10.4 mph - N/A   Clear
10:55 PM 15.8 °F 4.2 °F -0.4 °F 49% 30.45 in 10.0 mi West 9.2 mph - N/A   Clear
11:15 PM 15.8 °F 5.1 °F 1.4 °F 53% 30.45 in 10.0 mi West 8.1 mph - N/A   Clear
11:35 PM 17.6 °F 5.7 °F 1.4 °F 49% 30.45 in 10.0 mi West 10.4 mph 16.1 mph N/A   Clear
11:55 PM 17.6 °F 8.2 °F 1.4 °F 49% 30.45 in 10.0 mi West 6.9 mph - N/A   Clear